Time;durP1;ratioP1;P1;durP2;ratioP2;P2;SDS_P1;SDS_P2;PMS_P1;PMS_P2;Temp;Humidity;BMP_temperature;BMP_pressure;BME280_temperature;BME280_humidity;BME280_pressure;Samples;Min_cycle;Max_cycle;Signal;HPM_P1;HPM_P2
2023/10/25 06:34:17;;;;;;;19.98;13.52;;;;;;;7.28;100.00;95302.53;2082927;27;20552;-64
2023/10/25 06:35:18;;;;;;;18.67;13.52;;;;;;;7.46;100.00;95300.69;2082799;28;20205;-65
2023/10/25 06:40:37;;;;;;;16.08;10.82;;;;;;;8.04;100.00;95301.84;2083815;28;20575;-64
2023/10/25 06:44:43;;;;;;;15.25;10.38;;;;;;;7.94;100.00;95300.69;2084217;28;20572;-65
2023/10/25 06:45:48;;;;;;;16.52;11.57;;;;;;;7.98;100.00;95295.22;2082744;28;20195;-65
2023/10/25 06:49:28;;;;;;;21.15;10.57;;;;;;;8.35;100.00;95289.72;2082438;28;20572;-63
2023/10/25 06:50:30;;;;;;;18.40;12.82;;;;;;;8.43;100.00;95289.25;2078529;28;20293;-64
2023/10/25 06:51:31;;;;;;;13.52;10.07;;;;;;;8.70;100.00;95302.47;2073583;28;20335;-64
2023/10/25 06:52:33;;;;;;;11.85;9.15;;;;;;;8.86;100.00;95293.75;2073149;28;20197;-64
2023/10/25 06:53:36;;;;;;;12.70;8.93;;;;;;;9.24;100.00;95288.88;2072119;28;20190;-65
2023/10/25 06:54:38;;;;;;;11.98;9.65;;;;;;;9.36;100.00;95283.81;2070741;28;20487;-64
2023/10/25 06:55:40;;;;;;;10.98;8.52;;;;;;;9.80;100.00;95286.28;2070641;28;20289;-63
2023/10/25 06:56:41;;;;;;;12.02;7.47;;;;;;;10.19;97.82;95282.97;2073386;28;20248;-64
2023/10/25 06:57:43;;;;;;;11.60;7.15;;;;;;;10.64;95.29;95294.00;2074858;28;20197;-64
2023/10/25 06:58:45;;;;;;;10.82;6.78;;;;;;;10.92;69.00;73714.66;2071891;28;20197;-64
2023/10/25 06:59:46;;;;;;;7.45;5.93;;;;;;;10.78;92.48;95290.47;2069552;28;20197;-64
2023/10/25 07:00:50;;;;;;;8.88;5.72;;;;;;;11.02;92.05;95289.72;2073696;28;20235;-64
2023/10/25 07:02:04;;;;;;;12.93;8.95;;;;;;;11.24;90.53;95282.09;2072204;28;20361;-64
2023/10/25 07:03:10;;;;;;;8.63;6.75;;;;;;;11.31;89.96;95286.91;2073707;28;20294;-64
2023/10/25 07:04:16;;;;;;;9.93;5.43;;;;;;;11.22;89.64;95281.38;2070119;28;20198;-65
2023/10/25 07:05:23;;;;;;;6.75;5.43;;;;;;;11.31;89.90;95274.66;2066459;28;20208;-64
2023/10/25 07:06:25;;;;;;;6.63;5.50;;;;;;;10.99;90.37;95282.09;2069891;28;20866;-63
2023/10/25 07:07:30;;;;;;;8.32;5.10;;;;;;;11.21;89.25;95271.00;2068888;28;20198;-63
2023/10/25 07:08:32;;;;;;;6.13;4.57;;;;;;;11.31;88.93;95268.59;2072049;28;20197;-63
2023/10/25 07:09:34;;;;;;;8.70;5.22;;;;;;;11.37;88.83;95270.78;2071651;28;20276;-63
2023/10/25 07:10:35;;;;;;;5.88;4.45;;;;;;;11.78;87.68;95267.03;2071021;28;20292;-63
2023/10/25 07:11:37;;;;;;;8.43;4.57;;;;;;;-145.49;100.00;55703.94;2068138;28;20779;-63
2023/10/25 07:12:39;;;;;;;6.10;4.05;;;;;;;11.78;100.00;73823.34;2070892;28;20339;-63
2023/10/25 07:13:40;;;;;;;11.32;4.93;;;;;;;-145.49;100.00;55703.94;2072439;28;20202;-63
2023/10/25 07:14:42;;;;;;;7.80;4.90;;;;;;;-145.49;100.00;55703.94;2068744;28;20217;-63
2023/10/25 07:15:44;;;;;;;8.63;4.82;;;;;;;-145.49;100.00;55703.94;2071031;28;20323;-63
2023/10/25 07:16:46;;;;;;;6.53;5.32;;;;;;;-145.49;100.00;55703.94;2073159;28;20311;-63
2023/10/25 07:17:49;;;;;;;7.53;4.80;;;;;;;-145.49;100.00;55703.94;2072169;28;20200;-63
2023/10/25 07:18:51;;;;;;;8.02;4.63;;;;;;;-145.49;100.00;55703.94;2072379;28;20287;-63
2023/10/25 07:19:53;;;;;;;5.97;4.88;;;;;;;-145.49;100.00;55703.94;2067895;28;20194;-63
2023/10/25 07:20:56;;;;;;;8.70;5.35;;;;;;;-145.49;100.00;55703.94;2071741;28;20259;-63
2023/10/25 07:21:57;;;;;;;7.93;5.50;;;;;;;-145.49;100.00;55703.94;2069900;28;20619;-63
2023/10/25 07:23:00;;;;;;;8.18;5.07;;;;;;;-145.49;100.00;55703.94;2073337;28;20198;-63
2023/10/25 07:24:01;;;;;;;6.05;4.90;;;;;;;-145.49;100.00;55703.94;2072334;28;20185;-64
2023/10/25 07:25:04;;;;;;;7.53;4.00;;;;;;;-145.49;100.00;55703.94;2070885;28;20197;-63
2023/10/25 07:26:06;;;;;;;4.63;3.65;;;;;;;-145.49;100.00;55703.94;2064151;28;20198;-63
2023/10/25 07:27:08;;;;;;;5.57;3.83;;;;;;;-145.49;100.00;55703.94;2064797;28;20198;-63
2023/10/25 07:28:10;;;;;;;5.07;3.78;;;;;;;-145.49;100.00;55703.94;2070347;28;20190;-63
2023/10/25 07:29:11;;;;;;;6.40;4.05;;;;;;;-145.49;100.00;55703.94;2070126;28;20888;-63
2023/10/25 07:30:13;;;;;;;5.35;4.22;;;;;;;-145.49;100.00;55703.94;2068699;28;20202;-63
2023/10/25 07:31:15;;;;;;;6.55;3.65;;;;;;;-145.49;100.00;55703.94;2062457;28;20279;-64
2023/10/25 07:32:17;;;;;;;5.43;3.85;;;;;;;-145.49;100.00;55703.94;2066895;28;20233;-63
2023/10/25 07:33:18;;;;;;;6.88;3.90;;;;;;;-145.49;100.00;55703.94;2073528;28;20660;-64
2023/10/25 07:34:20;;;;;;;4.78;3.50;;;;;;;-145.49;100.00;55703.94;2072066;28;20220;-64
2023/10/25 07:35:22;;;;;;;5.82;4.10;;;;;;;-145.49;100.00;55703.94;2068840;28;20302;-63
2023/10/25 07:36:24;;;;;;;5.40;4.15;;;;;;;-145.49;100.00;55703.94;2067434;28;20281;-63
2023/10/25 07:37:26;;;;;;;5.05;4.13;;;;;;;-145.49;100.00;55703.94;2066339;28;20203;-63
2023/10/25 07:38:28;;;;;;;6.68;4.65;;;;;;;-145.49;100.00;55703.94;2070447;28;20693;-63
2023/10/25 07:39:29;;;;;;;5.55;4.00;;;;;;;-145.49;100.00;55703.94;2070341;28;20194;-63
2023/10/25 07:40:31;;;;;;;5.10;4.00;;;;;;;-145.49;100.00;55703.94;2068594;28;20205;-63
2023/10/25 07:41:32;;;;;;;5.38;4.43;;;;;;;-145.49;100.00;55703.94;2070367;28;20270;-63
2023/10/25 07:42:35;;;;;;;10.70;4.32;;;;;;;-145.49;100.00;55703.94;2071392;28;20200;-63
2023/10/25 07:43:36;;;;;;;7.30;4.75;;;;;;;-145.49;100.00;55703.94;2073905;28;20202;-63
2023/10/25 07:44:38;;;;;;;6.18;4.63;;;;;;;-145.49;100.00;55703.94;2075103;28;20193;-63
2023/10/25 07:45:40;;;;;;;6.47;5.00;;;;;;;-145.49;100.00;55703.94;2075015;28;20201;-64
2023/10/25 07:46:42;;;;;;;5.53;4.40;;;;;;;-145.49;100.00;55703.94;2073407;28;20900;-64
2023/10/25 07:47:43;;;;;;;8.00;5.13;;;;;;;-145.49;100.00;55703.94;2073719;28;20190;-63
2023/10/25 07:48:45;;;;;;;8.15;5.30;;;;;;;-145.49;100.00;55703.94;2074174;28;20544;-63
2023/10/25 07:49:46;;;;;;;11.27;4.80;;;;;;;-145.49;100.00;55703.94;2071634;28;20213;-64
2023/10/25 07:50:48;;;;;;;11.73;5.55;;;;;;;-145.49;100.00;55703.94;2072502;28;20264;-63
2023/10/25 07:51:49;;;;;;;5.90;4.88;;;;;;;-145.49;100.00;55703.94;2071604;28;20249;-63
2023/10/25 07:52:54;;;;;;;6.40;4.90;;;;;;;-145.49;100.00;55703.94;2071041;28;20193;-63
2023/10/25 07:53:55;;;;;;;10.75;4.70;;;;;;;-145.49;100.00;55703.94;2069801;28;20193;-63
2023/10/25 07:54:56;;;;;;;7.22;4.55;;;;;;;-145.49;100.00;55703.94;2070524;28;20558;-64
2023/10/25 07:56:02;;;;;;;6.03;4.40;;;;;;;-145.49;100.00;55703.94;2071637;28;20186;-64
2023/10/25 07:57:07;;;;;;;6.03;4.45;;;;;;;-145.49;100.00;55703.94;2071992;28;20214;-66
2023/10/25 07:58:12;;;;;;;5.20;3.88;;;;;;;-145.49;100.00;55703.94;2071191;28;20807;-64
2023/10/25 07:59:28;;;;;;;5.35;2.83;;;;;;;-145.49;100.00;55703.94;2070777;28;20184;-63
2023/10/25 08:00:30;;;;;;;3.45;2.67;;;;;;;-145.49;100.00;55703.94;2067046;28;20226;-64
2023/10/25 08:01:31;;;;;;;5.65;3.65;;;;;;;-145.49;100.00;55703.94;2065845;28;20309;-63
2023/10/25 08:02:33;;;;;;;5.70;3.08;;;;;;;-145.49;100.00;55703.94;2068924;28;20205;-64
2023/10/25 08:03:35;;;;;;;6.28;3.00;;;;;;;-145.49;100.00;55703.94;2066334;28;20273;-64
2023/10/25 08:04:37;;;;;;;5.22;2.67;;;;;;;-145.49;100.00;55703.94;2066276;28;20207;-64
2023/10/25 08:05:39;;;;;;;3.92;2.92;;;;;;;-145.49;100.00;55703.94;2066790;28;20623;-64
2023/10/25 08:06:41;;;;;;;5.20;3.40;;;;;;;-145.49;100.00;55703.94;2066997;28;20692;-64
2023/10/25 08:07:45;;;;;;;5.72;3.25;;;;;;;-145.49;100.00;55703.94;2068361;28;20210;-64
2023/10/25 08:08:49;;;;;;;3.72;2.60;;;;;;;-145.49;100.00;55703.94;2064240;28;20197;-63
2023/10/25 08:09:50;;;;;;;5.75;2.65;;;;;;;-145.49;100.00;55703.94;2062615;28;20222;-64
2023/10/25 08:11:18;;;;;;;4.75;2.47;;;;;;;-145.49;100.00;55703.94;2064863;28;20190;-64
2023/10/25 08:12:20;;;;;;;6.38;3.80;;;;;;;-145.49;100.00;55703.94;2064582;28;20222;-64
2023/10/25 08:13:21;;;;;;;4.50;3.20;;;;;;;-145.49;100.00;55703.94;2065452;28;20205;-63
2023/10/25 08:14:22;;;;;;;4.65;2.35;;;;;;;-145.49;100.00;55703.94;2067041;28;20748;-63
2023/10/25 08:15:24;;;;;;;5.45;3.35;;;;;;;-145.49;100.00;55703.94;2066459;28;20286;-64
2023/10/25 08:16:25;;;;;;;4.90;3.55;;;;;;;-145.49;100.00;55703.94;2064590;28;20222;-63
2023/10/25 08:17:27;;;;;;;5.07;3.63;;;;;;;-145.49;100.00;55703.94;2064684;28;20665;-64
2023/10/25 08:18:30;;;;;;;4.22;3.50;;;;;;;-145.49;100.00;55703.94;2064052;28;21304;-64
2023/10/25 08:19:32;;;;;;;3.70;2.92;;;;;;;-145.49;100.00;55703.94;2066873;28;20293;-64
2023/10/25 08:20:36;;;;;;;7.88;3.42;;;;;;;-145.49;100.00;55703.94;2067218;28;20208;-64
2023/10/25 08:21:38;;;;;;;4.82;3.30;;;;;;;-145.49;100.00;55703.94;2064257;28;20218;-64
2023/10/25 08:22:40;;;;;;;5.03;3.22;;;;;;;-145.49;100.00;55703.94;2066384;28;20210;-63
2023/10/25 08:23:41;;;;;;;4.00;3.22;;;;;;;-145.49;100.00;55703.94;2063410;28;20606;-64
2023/10/25 08:24:43;;;;;;;8.55;3.85;;;;;;;-145.49;100.00;55703.94;2067074;28;20216;-64
2023/10/25 08:25:44;;;;;;;5.35;3.60;;;;;;;-145.49;100.00;55703.94;2067573;28;20820;-64
2023/10/25 08:26:46;;;;;;;6.88;4.40;;;;;;;-145.49;100.00;55703.94;2066925;28;20237;-64
2023/10/25 08:27:47;;;;;;;11.55;4.28;;;;;;;-145.49;100.00;55703.94;2067120;28;20209;-63
2023/10/25 08:28:49;;;;;;;6.35;4.55;;;;;;;-145.49;100.00;55703.94;2065753;28;20194;-64
2023/10/25 08:29:51;;;;;;;9.50;4.05;;;;;;;-145.49;100.00;55703.94;2066938;28;20199;-63
2023/10/25 08:30:53;;;;;;;6.35;3.90;;;;;;;-145.49;100.00;55703.94;2066220;28;20233;-64
2023/10/25 08:31:54;;;;;;;4.88;3.28;;;;;;;-145.49;100.00;55703.94;2064238;28;20223;-64
2023/10/25 08:32:56;;;;;;;12.10;3.30;;;;;;;-145.49;100.00;55703.94;2063745;28;20190;-63
2023/10/25 08:33:57;;;;;;;7.10;4.10;;;;;;;-145.49;100.00;55703.94;2064595;28;20226;-64
2023/10/25 08:34:59;;;;;;;9.38;3.90;;;;;;;-145.49;100.00;55703.94;2065735;28;20194;-64
2023/10/25 08:36:02;;;;;;;5.35;3.88;;;;;;;-145.49;100.00;55703.94;2066079;28;20208;-64
2023/10/25 08:37:03;;;;;;;5.38;3.60;;;;;;;-145.49;100.00;55703.94;2066771;28;20685;-65
2023/10/25 08:38:05;;;;;;;5.88;4.18;;;;;;;-145.49;100.00;55703.94;2067495;28;20187;-64
2023/10/25 08:39:06;;;;;;;5.53;3.65;;;;;;;-145.49;100.00;55703.94;2063771;28;20523;-64
2023/10/25 08:40:10;;;;;;;7.65;3.97;;;;;;;-145.49;100.00;55703.94;2065647;28;20190;-63
2023/10/25 08:41:11;;;;;;;7.20;4.07;;;;;;;-145.49;100.00;55703.94;2066531;28;20240;-64
2023/10/25 08:42:13;;;;;;;6.05;4.30;;;;;;;-145.49;100.00;55703.94;2063153;28;20245;-63
2023/10/25 08:43:16;;;;;;;6.90;4.55;;;;;;;-145.49;100.00;55703.94;2062841;28;20691;-64
2023/10/25 08:44:19;;;;;;;6.63;4.30;;;;;;;-145.49;100.00;55703.94;2065235;28;20210;-64
2023/10/25 09:37:38;;;;;;;9.07;4.45;;;;;;;9.21;100.00;95130.16;2084307;28;20568;-62
2023/10/25 09:40:44;;;;;;;10.68;3.83;;;;;;;9.36;100.00;95125.75;2093944;27;20628;-63
2023/10/25 09:41:50;;;;;;;6.60;4.18;;;;;;;9.52;100.00;95129.97;2094104;28;20276;-64
2023/10/25 09:45:03;;;;;;;8.45;3.85;;;;;;;9.48;100.00;95103.28;2081484;28;20589;-63
2023/10/25 09:46:07;;;;;;;6.25;3.78;;;;;;;9.60;100.00;95109.47;2076742;28;20207;-64
2023/10/25 09:47:10;;;;;;;4.70;3.53;;;;;;;9.71;100.00;95127.00;2070731;28;20187;-64
2023/10/25 09:48:13;;;;;;;6.90;3.75;;;;;;;9.78;100.00;95117.84;2071485;28;20257;-64
2023/10/25 09:52:11;;;;;;;4.75;3.35;;;;;;;9.71;100.00;95106.97;2082098;27;20567;-63
2023/10/25 09:53:27;;;;;;;5.10;3.10;;;;;;;9.83;100.00;95110.56;2080344;28;20202;-64
2023/10/25 09:54:32;;;;;;;7.13;3.38;;;;;;;9.86;100.00;95105.13;2081030;28;20250;-64
2023/10/25 09:55:35;;;;;;;5.65;3.40;;;;;;;10.01;100.00;95097.25;2081611;28;20315;-64
2023/10/25 09:56:37;;;;;;;7.00;3.85;;;;;;;10.19;100.00;95098.59;2076349;28;20229;-64
2023/10/25 09:57:40;;;;;;;4.90;3.10;;;;;;;10.08;100.00;95101.94;2073377;28;21081;-64
2023/10/25 09:58:44;;;;;;;3.90;2.78;;;;;;;10.08;100.00;95098.47;2075089;28;20302;-64
2023/10/25 09:59:46;;;;;;;3.80;2.63;;;;;;;10.18;100.00;95098.69;2071121;28;20729;-64
2023/10/25 10:00:48;;;;;;;5.28;3.53;;;;;;;10.06;100.00;95095.16;2074038;28;20683;-64
2023/10/25 10:01:50;;;;;;;4.97;2.80;;;;;;;10.19;100.00;95095.16;2070820;28;20239;-64
2023/10/25 10:03:06;;;;;;;5.75;3.00;;;;;;;-145.49;100.00;55703.94;2074873;28;20248;-63
2023/10/25 10:04:45;;;;;;;4.38;2.55;;;;;;;-145.49;100.00;55703.94;2073110;28;20338;-64
2023/10/25 10:06:03;;;;;;;7.03;3.05;;;;;;;-145.49;100.00;55703.94;2072952;28;20758;-63
2023/10/25 10:07:34;;;;;;;7.63;3.38;;;;;;;-145.49;100.00;55703.94;2073311;28;20220;-64
2023/10/25 10:08:47;;;;;;;4.95;3.30;;;;;;;-145.49;100.00;55703.94;2073930;28;20204;-64
2023/10/25 10:10:15;;;;;;;3.97;2.70;;;;;;;-145.49;100.00;55703.94;2073327;28;20195;-64
2023/10/25 10:11:24;;;;;;;5.80;3.33;;;;;;;-145.49;100.00;55703.94;2072949;28;20192;-64
2023/10/25 10:15:08;;;;;;;6.70;3.10;;;;;;;10.50;100.00;95070.44;2082731;28;21334;-64
2023/10/25 10:16:13;;;;;;;4.60;2.97;;;;;;;10.36;100.00;95084.44;2080137;28;20214;-63
2023/10/25 10:20:23;;;;;;;4.97;2.30;;;;;;;10.48;100.00;95068.88;2083052;28;20583;-64
2023/10/25 10:21:26;;;;;;;6.25;2.80;;;;;;;10.48;100.00;95068.88;2076666;28;20226;-64
2023/10/25 10:22:28;;;;;;;3.88;2.55;;;;;;;10.43;100.00;95067.41;2071977;28;20243;-64
2023/10/25 10:26:11;;;;;;;4.75;2.97;;;;;;;10.66;100.00;95048.50;2083106;28;20552;-62
2023/10/25 10:27:33;;;;;;;8.32;3.17;;;;;;;10.70;100.00;95047.31;2081849;28;20657;-63
2023/10/25 10:28:47;;;;;;;5.15;2.97;;;;;;;10.72;100.00;95040.22;2071986;28;20233;-67
2023/10/25 10:32:57;;;;;;;4.63;2.80;;;;;;;10.61;100.00;95034.00;2099059;27;20582;-67
2023/10/25 10:33:59;;;;;;;5.38;2.92;;;;;;;10.62;100.00;95034.81;2097819;28;20290;-67
2023/10/25 10:35:01;;;;;;;4.72;2.75;;;;;;;10.71;100.00;95035.94;2098391;28;20234;-67
2023/10/25 10:36:03;;;;;;;3.20;2.10;;;;;;;10.67;100.00;95029.28;2095012;28;20331;-67
2023/10/25 10:39:55;;;;;;;6.38;2.70;;;;;;;10.81;99.74;95026.50;2083628;28;20576;-65
2023/10/25 10:41:01;;;;;;;4.88;2.58;;;;;;;10.94;99.83;95027.31;2081208;28;20189;-65
2023/10/25 10:42:03;;;;;;;6.25;3.35;;;;;;;10.90;99.27;95030.25;2072929;28;20272;-66
2023/10/25 10:43:07;;;;;;;9.38;2.78;;;;;;;10.98;100.00;95019.25;2073875;28;20548;-66
2023/10/25 10:44:11;;;;;;;4.70;3.00;;;;;;;11.09;100.00;95011.47;2073991;28;20324;-66
2023/10/25 10:45:15;;;;;;;4.85;2.78;;;;;;;11.21;99.57;95013.19;2073937;28;20186;-68
2023/10/25 10:49:31;;;;;;;6.00;2.13;;;;;;;11.08;98.50;94994.13;2091586;28;20345;-68
2023/10/25 10:50:32;;;;;;;8.90;3.13;;;;;;;11.05;99.54;94989.13;2087651;28;20232;-68
2023/10/25 10:54:33;;;;;;;4.82;2.50;;;;;;;11.01;100.00;94985.06;2084281;28;20580;-67
2023/10/25 10:58:27;;;;;;;6.13;2.65;;;;;;;11.04;100.00;94963.97;2132400;27;21125;-66
2023/10/25 10:59:29;;;;;;;8.88;2.97;;;;;;;11.10;99.72;94972.16;2128195;27;20475;-66
2023/10/25 11:03:06;;;;;;;4.70;2.17;;;;;;;11.10;98.61;94971.34;2086503;28;20580;-67
2023/10/25 11:04:11;;;;;;;3.42;2.17;;;;;;;11.09;99.10;94957.44;2079746;28;20190;-68
2023/10/25 11:05:14;;;;;;;5.63;2.60;;;;;;;11.15;100.00;94960.53;2082096;28;20722;-68
2023/10/25 11:06:16;;;;;;;4.22;2.85;;;;;;;11.16;98.87;94955.22;2076954;28;20193;-68
2023/10/25 11:07:17;;;;;;;3.53;2.40;;;;;;;11.23;98.85;94959.03;2069266;28;20592;-67
2023/10/25 11:08:23;;;;;;;5.22;2.28;;;;;;;11.39;98.44;94945.66;2070718;28;20190;-68
2023/10/25 11:09:25;;;;;;;3.90;2.30;;;;;;;11.89;96.68;94934.91;2065070;28;20214;-68
2023/10/25 11:10:26;;;;;;;4.20;2.38;;;;;;;12.66;92.23;94943.81;2066274;28;20862;-68
2023/10/25 11:11:28;;;;;;;4.43;2.47;;;;;;;12.61;91.42;94939.88;2064999;28;20235;-64
2023/10/25 11:12:30;;;;;;;3.30;2.22;;;;;;;12.79;90.65;94935.78;2065119;28;20302;-64
2023/10/25 11:13:32;;;;;;;4.75;2.72;;;;;;;12.67;89.41;94931.53;2066904;28;20845;-64
2023/10/25 11:14:41;;;;;;;3.50;2.45;;;;;;;12.73;90.91;94939.75;2067057;28;20281;-64
2023/10/25 11:15:43;;;;;;;3.60;2.10;;;;;;;12.60;91.02;94946.09;2066559;28;20294;-63
2023/10/25 11:16:44;;;;;;;5.80;2.22;;;;;;;12.53;91.09;94941.34;2067104;28;20234;-64
2023/10/25 11:17:46;;;;;;;5.65;1.90;;;;;;;12.58;91.03;94930.47;2067093;28;20220;-63
2023/10/25 11:18:47;;;;;;;4.63;2.05;;;;;;;12.45;91.30;94933.25;2066880;28;20195;-63
2023/10/25 11:19:49;;;;;;;4.05;1.80;;;;;;;12.45;91.75;94928.00;2061882;28;20293;-64
2023/10/25 11:20:50;;;;;;;4.65;2.40;;;;;;;12.52;91.37;94931.81;2066316;28;20280;-64
2023/10/25 11:21:52;;;;;;;4.38;2.30;;;;;;;12.52;91.37;94931.81;2066958;28;20225;-64
2023/10/25 11:22:53;;;;;;;4.10;2.28;;;;;;;12.33;91.83;94929.81;2067976;28;20547;-63
2023/10/25 11:23:55;;;;;;;3.33;2.28;;;;;;;12.43;91.31;94923.84;2067850;28;21113;-63
2023/10/25 11:24:58;;;;;;;3.83;2.55;;;;;;;12.49;91.09;94920.75;2065530;28;20199;-63
2023/10/25 11:26:00;;;;;;;3.97;2.30;;;;;;;12.60;91.41;94912.88;2065701;28;20233;-64
2023/10/25 11:27:02;;;;;;;3.08;2.00;;;;;;;12.63;90.94;94910.00;2065047;28;20191;-63
2023/10/25 11:28:04;;;;;;;3.75;2.47;;;;;;;12.66;91.40;94909.75;2066860;28;20277;-63
2023/10/25 11:29:06;;;;;;;4.50;2.03;;;;;;;12.85;91.87;94903.88;2066684;28;20226;-64
2023/10/25 11:30:08;;;;;;;4.85;2.05;;;;;;;12.76;91.00;94907.25;2065200;28;20201;-64
2023/10/25 11:31:10;;;;;;;3.50;2.00;;;;;;;12.82;91.42;94909.34;2064454;28;20511;-64
2023/10/25 11:32:12;;;;;;;4.18;2.00;;;;;;;12.83;90.48;94905.75;2065114;28;20195;-64
2023/10/25 11:33:15;;;;;;;15.65;2.10;;;;;;;12.76;90.50;94898.53;2067743;28;20195;-64
2023/10/25 11:34:20;;;;;;;4.10;2.30;;;;;;;13.52;87.72;94911.53;2065569;28;20672;-63
2023/10/25 11:35:23;;;;;;;4.47;1.90;;;;;;;14.27;84.06;94895.56;2064858;28;20233;-65
2023/10/25 11:36:28;;;;;;;3.10;1.60;;;;;;;14.11;85.13;94902.16;2070688;28;20229;-64
2023/10/25 11:37:46;;;;;;;3.50;1.85;;;;;;;-145.49;100.00;55703.94;2068296;28;20653;-64
2023/10/25 11:38:48;;;;;;;4.20;1.77;;;;;;;-145.49;100.00;55703.94;2063974;28;20277;-64
2023/10/25 11:40:01;;;;;;;5.05;2.15;;;;;;;-145.49;100.00;55703.94;2065242;28;20295;-64
2023/10/25 11:41:03;;;;;;;3.70;1.73;;;;;;;;;;2065710;28;20281;-63
2023/10/25 11:42:04;;;;;;;4.03;1.95;;;;;;;13.77;85.47;94886.69;2065557;28;20773;-63
2023/10/25 11:43:07;;;;;;;4.93;1.85;;;;;;;14.01;85.66;94894.25;2066322;28;20214;-63
2023/10/25 11:44:09;;;;;;;2.90;1.55;;;;;;;14.08;85.43;94896.34;2067076;28;20199;-64
2023/10/25 11:45:11;;;;;;;3.55;1.77;;;;;;;13.87;86.10;94879.69;2065837;28;20206;-64
2023/10/25 11:46:14;;;;;;;3.50;1.80;;;;;;;13.72;86.17;94883.63;2064946;28;20270;-64
2023/10/25 11:47:21;;;;;;;2.88;1.83;;;;;;;14.09;63.31;74117.38;2066350;28;20191;-64
2023/10/25 11:48:24;;;;;;;4.43;1.85;;;;;;;13.95;84.39;94897.38;2065231;28;20253;-65
2023/10/25 11:49:25;;;;;;;3.95;2.17;;;;;;;13.63;84.73;94879.19;2065331;28;20207;-65
2023/10/25 11:50:27;;;;;;;4.78;1.92;;;;;;;13.42;86.70;94885.28;2063871;28;20392;-65
2023/10/25 11:51:28;;;;;;;3.97;2.08;;;;;;;13.36;87.44;94881.34;2063067;28;20287;-65
2023/10/25 11:52:31;;;;;;;3.58;2.00;;;;;;;13.18;88.10;94878.47;2064965;28;20195;-65
2023/10/25 11:53:32;;;;;;;3.78;1.70;;;;;;;13.10;89.29;94867.78;2066255;28;20511;-65
2023/10/25 11:54:34;;;;;;;4.82;1.77;;;;;;;13.07;89.56;94873.28;2066422;28;20273;-65
2023/10/25 11:55:35;;;;;;;2.78;1.60;;;;;;;13.04;89.31;94866.50;2066163;28;20202;-64
2023/10/25 11:56:37;;;;;;;4.10;1.50;;;;;;;13.11;89.63;94861.56;2065346;28;20897;-65
2023/10/25 11:57:39;;;;;;;4.43;1.80;;;;;;;13.22;89.95;94856.28;2065558;28;20286;-65
2023/10/25 11:58:41;;;;;;;2.55;1.45;;;;;;;13.13;88.90;94856.19;2064463;28;20245;-65
2023/10/25 11:59:42;;;;;;;4.35;1.33;;;;;;;13.06;89.02;94848.88;2065458;28;20285;-63
2023/10/25 12:00:44;;;;;;;2.65;1.27;;;;;;;12.94;88.38;94849.88;2065936;28;20709;-65
2023/10/25 12:01:45;;;;;;;3.25;1.50;;;;;;;12.94;88.45;94831.56;2065328;28;20226;-65
2023/10/25 12:02:47;;;;;;;1.83;1.10;;;;;;;13.02;88.94;94844.00;2065691;28;20872;-65
2023/10/25 12:03:49;;;;;;;2.05;1.27;;;;;;;12.98;88.41;94842.59;2065196;28;20205;-66
2023/10/25 12:04:55;;;;;;;2.50;1.30;;;;;;;13.00;88.91;94849.38;2064837;28;20202;-66
2023/10/25 12:05:56;;;;;;;2.30;1.27;;;;;;;12.98;88.97;94842.59;2064756;28;20203;-66
2023/10/25 12:06:58;;;;;;;2.40;1.30;;;;;;;13.01;90.65;94837.91;2063908;28;20372;-66
2023/10/25 12:07:59;;;;;;;8.63;1.45;;;;;;;12.95;89.68;94842.84;2062365;28;20559;-65
2023/10/25 12:09:01;;;;;;;5.43;1.50;;;;;;;12.98;90.21;94842.59;2067185;28;20203;-65
2023/10/25 12:10:05;;;;;;;2.45;1.30;;;;;;;12.93;90.04;94842.16;2065043;28;20203;-65
2023/10/25 12:11:11;;;;;;;3.00;1.20;;;;;;;12.99;90.05;94842.47;2066082;28;20286;-66
2023/10/25 12:12:13;;;;;;;2.35;1.23;;;;;;;13.12;90.12;94842.28;2063087;28;20202;-65
2023/10/25 12:13:14;;;;;;;3.08;1.30;;;;;;;13.37;88.67;94837.66;2064939;28;20549;-65
2023/10/25 12:14:15;;;;;;;3.72;1.23;;;;;;;13.51;88.39;94837.28;2062394;28;20329;-65
2023/10/25 12:15:32;;;;;;;5.93;1.17;;;;;;;13.52;88.42;94833.72;2059477;28;20757;-65
2023/10/25 12:16:34;;;;;;;2.80;1.05;;;;;;;13.58;88.82;94834.97;2059769;28;20238;-65
2023/10/25 12:17:35;;;;;;;2.47;1.23;;;;;;;13.59;88.83;94830.56;2061371;28;20294;-66
2023/10/25 12:18:37;;;;;;;4.68;1.10;;;;;;;13.73;87.58;94832.00;2059621;28;20196;-65
2023/10/25 12:19:39;;;;;;;5.72;1.00;;;;;;;13.81;87.52;94840.84;2059560;28;20279;-65
2023/10/25 12:20:41;;;;;;;2.05;1.13;;;;;;;13.49;90.02;94818.22;2061802;28;20206;-65
2023/10/25 12:21:42;;;;;;;2.65;1.15;;;;;;;14.04;88.77;94823.13;2058617;28;20610;-66
2023/10/25 12:22:44;;;;;;;8.45;1.35;;;;;;;14.25;88.25;94819.59;2060047;28;20819;-66
2023/10/25 12:23:45;;;;;;;3.50;1.40;;;;;;;14.31;86.12;94824.28;2059737;28;20219;-65
2023/10/25 12:24:47;;;;;;;5.30;1.50;;;;;;;14.17;85.73;94815.00;2059461;28;20540;-67
2023/10/25 12:25:50;;;;;;;1.95;1.05;;;;;;;13.88;87.31;94817.56;2059467;28;20210;-66
2023/10/25 12:26:52;;;;;;;2.30;1.10;;;;;;;13.58;88.64;94814.00;2058255;28;20227;-66
2023/10/25 12:27:53;;;;;;;2.17;1.00;;;;;;;13.50;89.29;94808.59;2059275;28;20203;-65
2023/10/25 12:28:55;;;;;;;1.52;0.95;;;;;;;13.28;88.72;94812.16;2059483;28;20252;-65
2023/10/25 12:29:56;;;;;;;2.85;1.20;;;;;;;13.22;89.20;94827.44;2058611;28;20203;-65
2023/10/25 12:30:58;;;;;;;3.40;1.20;;;;;;;13.07;89.20;94824.31;2059067;28;20222;-65
2023/10/25 12:32:00;;;;;;;2.92;1.10;;;;;;;12.99;90.51;94808.41;2056417;28;20247;-66
2023/10/25 12:33:02;;;;;;;2.05;1.10;;;;;;;12.94;90.53;94822.84;2059773;28;20211;-66
2023/10/25 12:34:04;;;;;;;3.33;1.23;;;;;;;12.90;91.00;94819.69;2060659;28;20196;-66
2023/10/25 12:35:06;;;;;;;7.18;1.10;;;;;;;12.89;91.55;94824.06;2057375;28;20222;-66
2023/10/25 12:36:07;;;;;;;2.15;1.23;;;;;;;12.88;92.45;94825.00;2058756;28;20795;-66
2023/10/25 12:37:10;;;;;;;1.80;1.00;;;;;;;12.91;92.43;94823.94;2058479;28;20290;-67
2023/10/25 12:38:11;;;;;;;7.22;1.00;;;;;;;12.89;92.75;94821.44;2066331;28;20199;-66
2023/10/25 12:39:13;;;;;;;1.92;1.00;;;;;;;12.83;92.35;94819.31;2065612;28;20434;-66
2023/10/25 12:40:14;;;;;;;7.20;1.10;;;;;;;12.85;93.09;94822.66;2060749;28;20221;-66
2023/10/25 12:41:16;;;;;;;1.40;0.90;;;;;;;12.83;93.12;94827.19;2061558;28;20199;-66
2023/10/25 12:42:17;;;;;;;2.20;0.88;;;;;;;12.84;92.42;94814.94;2058138;28;20199;-65
2023/10/25 12:43:18;;;;;;;2.03;1.02;;;;;;;12.91;93.20;94818.69;2058489;28;20203;-66
2023/10/25 12:44:20;;;;;;;1.95;1.10;;;;;;;13.04;93.07;94810.66;2061033;28;20645;-66
2023/10/25 12:45:21;;;;;;;4.63;1.13;;;;;;;13.11;91.22;94809.16;2062567;28;20198;-66
2023/10/25 12:46:23;;;;;;;2.67;1.20;;;;;;;13.30;91.51;94812.88;2058474;28;20401;-66
2023/10/25 12:47:24;;;;;;;3.15;1.35;;;;;;;13.44;90.52;94806.50;2059327;28;20203;-66
2023/10/25 12:48:26;;;;;;;3.60;1.13;;;;;;;13.50;91.62;94805.97;2059610;28;20273;-66
2023/10/25 12:49:29;;;;;;;2.80;1.15;;;;;;;13.34;90.57;94804.59;2059300;28;20190;-65
2023/10/25 12:50:30;;;;;;;3.75;1.10;;;;;;;13.33;89.60;94804.75;2059679;28;20227;-65
2023/10/25 12:51:32;;;;;;;4.00;1.10;;;;;;;13.53;89.44;94814.41;2056652;28;20849;-66
2023/10/25 12:52:33;;;;;;;1.45;0.80;;;;;;;13.52;89.20;94804.03;2057417;28;20196;-65
2023/10/25 12:53:36;;;;;;;4.63;1.20;;;;;;;13.43;90.56;94796.97;2057379;28;20602;-66
2023/10/25 12:54:38;;;;;;;2.28;1.30;;;;;;;13.33;90.66;94817.84;2058004;28;20647;-66
2023/10/25 12:55:40;;;;;;;2.22;1.25;;;;;;;13.21;91.24;94798.75;2061141;28;20221;-67
2023/10/25 12:56:41;;;;;;;6.50;1.67;;;;;;;13.13;92.91;94793.31;2057889;28;20223;-66
2023/10/25 12:57:43;;;;;;;4.32;1.85;;;;;;;13.12;94.18;94802.97;2059123;28;20307;-67
2023/10/25 12:58:44;;;;;;;3.25;1.10;;;;;;;13.09;93.25;94805.88;2059920;28;20577;-67
2023/10/25 12:59:46;;;;;;;6.57;1.40;;;;;;;13.05;94.19;94792.19;2060009;28;20417;-66
2023/10/25 13:00:48;;;;;;;2.65;1.30;;;;;;;13.04;92.35;94800.19;2058578;28;20815;-66
2023/10/25 13:01:50;;;;;;;5.80;1.40;;;;;;;12.99;92.74;94792.69;2060173;28;20555;-67
2023/10/25 13:02:54;;;;;;;3.30;1.20;;;;;;;12.91;93.07;94797.72;2060210;28;20269;-67